Lake Arthur, Louisiana
Current Conditions -  °F | °C
As of 12:55 PM on Sunday 23 Nov 2014 (Local Time) from K3R7 Reporting Station
Clear Clear  
Wind Chill: 70°   Ceiling: Unl
Heat Index: 70°   Visibility: 10mi
Dew Point: 56°   Wind: 17mph
Humidity: 63%   Direction: 230°SW
Pressure: 29.61"   Gusts: 25mph
Location:  30.08°N, 92.67°W
Report Text: K3R7 231855Z AUTO 23015G22KT 10SM CLR 21/14 A2961 RMK AO2 T02100136
Loading
Personal Weather Stations






























Interactive Weather Map New forecast layout! Learn more

10-Day Weather Forecast

Advertisements
Track Severe Weather on mobile